createdAt,value
2023-05-10T00:01:53.290Z,13.10
2023-05-10T00:04:20.552Z,13.00
2023-05-10T00:06:47.721Z,13.00
2023-05-10T00:09:15.151Z,13.00
2023-05-10T00:11:42.182Z,13.00
2023-05-10T00:14:09.284Z,13.00
2023-05-10T00:16:36.562Z,13.00
2023-05-10T00:19:03.957Z,12.90
2023-05-10T00:21:31.119Z,12.90
2023-05-10T00:23:58.251Z,12.90
2023-05-10T00:26:25.282Z,12.90
2023-05-10T00:28:55.919Z,12.90
2023-05-10T00:31:23.350Z,12.90
2023-05-10T00:33:51.235Z,12.90
2023-05-10T00:36:18.328Z,12.90
2023-05-10T00:38:45.382Z,12.80
2023-05-10T00:41:12.477Z,12.90
2023-05-10T00:43:40.802Z,12.80
2023-05-10T00:46:08.756Z,12.90
2023-05-10T00:48:36.161Z,12.80
2023-05-10T00:51:04.630Z,12.90
2023-05-10T00:53:33.852Z,12.80
2023-05-10T00:56:01.474Z,12.80
2023-05-10T00:58:29.752Z,12.80
2023-05-10T01:00:58.116Z,12.80
2023-05-10T01:03:26.419Z,12.80
2023-05-10T01:05:53.825Z,12.80
2023-05-10T01:08:21.280Z,12.80
2023-05-10T01:10:50.157Z,12.80
2023-05-10T01:13:34.987Z,12.80
2023-05-10T01:16:04.171Z,12.80
2023-05-10T01:18:42.291Z,12.70
2023-05-10T01:22:04.765Z,12.70
2023-05-10T01:25:35.941Z,12.70
2023-05-10T01:28:42.515Z,12.70
2023-05-10T01:31:28.396Z,12.70
2023-05-10T01:34:08.721Z,12.70
2023-05-10T01:36:51.308Z,12.60
2023-05-10T01:39:46.093Z,12.70
2023-05-10T01:42:27.243Z,12.60
2023-05-10T01:45:21.180Z,12.60
2023-05-10T01:47:56.870Z,12.60
2023-05-10T01:50:29.632Z,12.60
2023-05-10T01:52:59.664Z,12.60
2023-05-10T01:55:31.846Z,12.60
2023-05-10T01:58:07.643Z,12.60
2023-05-10T02:00:36.629Z,12.60
2023-05-10T02:03:07.922Z,12.70
2023-05-10T02:05:36.425Z,12.60
2023-05-10T02:08:07.158Z,12.60
2023-05-10T02:10:36.345Z,12.60
2023-05-10T02:13:04.568Z,12.60
2023-05-10T02:15:33.273Z,12.60
2023-05-10T02:18:01.989Z,12.60
2023-05-10T02:20:30.764Z,12.60
2023-05-10T02:22:58.741Z,12.60
2023-05-10T02:25:27.401Z,12.60
2023-05-10T02:27:58.175Z,12.60
2023-05-10T02:30:26.117Z,12.60
2023-05-10T02:32:54.086Z,12.60
2023-05-10T02:35:22.033Z,12.60
2023-05-10T02:37:49.859Z,12.60
2023-05-10T02:40:18.804Z,12.60
2023-05-10T02:42:48.759Z,12.60
2023-05-10T02:45:21.656Z,12.60
2023-05-10T02:47:49.811Z,12.60
2023-05-10T02:50:17.211Z,12.60
2023-05-10T02:52:49.093Z,12.60
2023-05-10T02:55:17.912Z,12.60
2023-05-10T02:58:02.008Z,12.50
2023-05-10T03:00:29.917Z,12.60
2023-05-10T03:02:57.262Z,12.50
2023-05-10T03:05:24.888Z,12.60
2023-05-10T03:07:53.104Z,12.60
2023-05-10T03:10:28.412Z,12.50
2023-05-10T03:13:12.115Z,12.50
2023-05-10T03:15:59.154Z,12.50
2023-05-10T03:19:02.695Z,12.50
2023-05-10T03:21:31.248Z,12.50
2023-05-10T03:24:08.457Z,12.50
2023-05-10T03:26:38.304Z,12.50
2023-05-10T03:29:15.012Z,12.40
2023-05-10T03:31:42.467Z,12.40
2023-05-10T03:34:09.580Z,12.40
2023-05-10T03:36:37.073Z,12.40
2023-05-10T03:39:04.152Z,12.40
2023-05-10T03:41:31.690Z,12.40
2023-05-10T03:43:58.864Z,12.40
2023-05-10T03:46:26.058Z,12.30
2023-05-10T03:48:53.414Z,12.30
2023-05-10T03:51:20.483Z,12.40
2023-05-10T03:53:47.477Z,12.30
2023-05-10T03:56:14.595Z,12.30
2023-05-10T03:58:41.610Z,12.40
2023-05-10T04:01:08.534Z,12.30
2023-05-10T04:03:37.380Z,12.30
2023-05-10T04:06:06.363Z,12.30
2023-05-10T04:08:33.707Z,12.30
2023-05-10T04:11:09.129Z,12.30
2023-05-10T04:13:36.521Z,12.30
2023-05-10T04:16:03.974Z,12.30
2023-05-10T04:18:31.637Z,12.30
2023-05-10T04:20:58.831Z,12.30
2023-05-10T04:23:25.804Z,12.40
2023-05-10T04:25:52.793Z,12.40
2023-05-10T04:28:20.172Z,12.40
2023-05-10T04:30:47.399Z,12.30
2023-05-10T04:33:15.317Z,12.30
2023-05-10T04:35:42.605Z,12.40
2023-05-10T04:38:09.673Z,12.30
2023-05-10T04:40:36.850Z,12.40
2023-05-10T04:43:03.943Z,12.40
2023-05-10T04:45:31.122Z,12.40
2023-05-10T04:47:58.140Z,12.40
2023-05-10T04:50:25.175Z,12.40
2023-05-10T04:52:53.291Z,12.40
2023-05-10T04:55:20.430Z,12.40
2023-05-10T04:57:47.400Z,12.40
2023-05-10T05:00:15.412Z,12.40
2023-05-10T05:02:46.629Z,12.40
2023-05-10T05:05:14.340Z,12.50
2023-05-10T05:07:41.762Z,12.50
2023-05-10T05:10:09.758Z,12.50
2023-05-10T05:12:36.807Z,12.50
2023-05-10T05:15:04.312Z,12.60
2023-05-10T05:17:32.573Z,12.60
2023-05-10T05:19:59.793Z,12.60
2023-05-10T05:22:29.665Z,12.70
2023-05-10T05:24:59.121Z,12.70
2023-05-10T05:27:28.721Z,12.80
2023-05-10T05:29:57.284Z,12.80
2023-05-10T05:32:25.478Z,12.80
2023-05-10T05:34:53.035Z,12.80
2023-05-10T05:37:25.511Z,12.80
2023-05-10T05:39:52.626Z,12.80
2023-05-10T05:42:19.866Z,12.80
2023-05-10T05:44:47.002Z,12.80
2023-05-10T05:47:14.132Z,12.80
2023-05-10T05:49:41.237Z,12.80
2023-05-10T05:52:08.206Z,12.70
2023-05-10T05:54:35.328Z,12.70
2023-05-10T05:57:02.408Z,12.70
2023-05-10T05:59:29.715Z,12.60
2023-05-10T06:01:56.907Z,12.60
2023-05-10T06:04:24.048Z,12.60
2023-05-10T06:06:51.054Z,12.60
2023-05-10T06:09:18.239Z,12.60
2023-05-10T06:11:45.386Z,12.60
2023-05-10T06:14:12.563Z,12.60
2023-05-10T06:16:39.695Z,12.70
2023-05-10T06:19:06.887Z,12.70
2023-05-10T06:21:33.958Z,12.70
2023-05-10T06:24:00.870Z,12.80
2023-05-10T06:26:28.083Z,12.70
2023-05-10T06:28:55.114Z,12.70
2023-05-10T06:31:22.294Z,12.70
2023-05-10T06:33:49.316Z,12.80
2023-05-10T06:36:16.539Z,12.80
2023-05-10T06:38:43.773Z,12.90
2023-05-10T06:41:10.844Z,12.80
2023-05-10T06:43:40.951Z,12.90
2023-05-10T06:46:08.546Z,12.80
2023-05-10T06:48:35.781Z,12.90
2023-05-10T06:51:02.830Z,12.90
2023-05-10T06:53:29.911Z,13.00
2023-05-10T06:55:57.144Z,13.00
2023-05-10T06:58:24.365Z,13.10
2023-05-10T07:00:51.575Z,13.10
2023-05-10T07:03:18.928Z,13.10
2023-05-10T07:05:46.102Z,13.20
2023-05-10T07:08:14.397Z,13.20
2023-05-10T07:10:41.427Z,13.30
2023-05-10T07:13:08.711Z,13.20
2023-05-10T07:15:35.947Z,13.20
2023-05-10T07:18:03.284Z,13.20
2023-05-10T07:20:30.400Z,13.30
2023-05-10T07:22:57.446Z,13.30
2023-05-10T07:25:25.119Z,13.40
2023-05-10T07:27:52.288Z,13.40
2023-05-10T07:30:19.700Z,13.40
2023-05-10T07:32:46.879Z,13.40
2023-05-10T07:35:14.062Z,13.40
2023-05-10T07:37:41.354Z,13.40
2023-05-10T07:40:09.357Z,13.50
2023-05-10T07:42:36.366Z,13.50
2023-05-10T07:45:03.421Z,13.50
2023-05-10T07:47:30.499Z,13.50
2023-05-10T07:49:57.677Z,13.40
2023-05-10T07:52:24.769Z,13.40
2023-05-10T07:54:51.768Z,13.50
2023-05-10T07:57:19.331Z,13.40
2023-05-10T07:59:46.635Z,13.40
2023-05-10T08:02:13.706Z,13.40
2023-05-10T08:04:41.086Z,13.40
2023-05-10T08:07:08.307Z,13.50
2023-05-10T08:09:35.439Z,13.40
2023-05-10T08:12:02.741Z,13.60
2023-05-10T08:14:30.850Z,13.70
2023-05-10T08:16:57.896Z,13.60
2023-05-10T08:19:25.024Z,13.90
2023-05-10T08:21:52.351Z,13.80
2023-05-10T08:24:19.486Z,14.00
2023-05-10T08:26:46.543Z,14.00
2023-05-10T08:29:13.777Z,14.10
2023-05-10T08:31:40.990Z,14.10
2023-05-10T08:34:08.254Z,14.30
2023-05-10T08:36:35.207Z,14.50
2023-05-10T08:39:02.279Z,14.70
2023-05-10T08:41:31.189Z,14.70
2023-05-10T08:43:58.808Z,14.70
2023-05-10T08:46:27.809Z,14.70
2023-05-10T08:48:55.726Z,14.70
2023-05-10T08:51:28.128Z,14.80
2023-05-10T08:53:55.883Z,14.80
2023-05-10T08:56:23.134Z,14.70
2023-05-10T08:58:50.714Z,14.60
2023-05-10T09:01:19.380Z,14.60
2023-05-10T09:03:48.937Z,14.50
2023-05-10T09:06:16.773Z,14.40
2023-05-10T09:08:44.326Z,14.40
2023-05-10T09:11:13.043Z,14.40
2023-05-10T09:13:40.624Z,14.50
2023-05-10T09:16:20.270Z,14.60
2023-05-10T09:18:48.124Z,14.40
2023-05-10T09:21:15.372Z,14.40
2023-05-10T09:23:48.683Z,14.40
2023-05-10T09:26:16.398Z,14.40
2023-05-10T09:28:54.436Z,14.40
2023-05-10T09:31:21.712Z,14.30
2023-05-10T09:33:50.627Z,14.30
2023-05-10T09:36:18.383Z,14.30
2023-05-10T09:38:52.857Z,14.30
2023-05-10T09:41:22.504Z,14.30
2023-05-10T09:43:50.513Z,14.40
2023-05-10T09:46:18.000Z,14.60
2023-05-10T09:48:48.491Z,14.70
2023-05-10T09:51:27.821Z,14.80
2023-05-10T09:54:16.318Z,14.90
2023-05-10T09:56:43.943Z,15.10
2023-05-10T09:59:13.577Z,15.20
2023-05-10T10:01:41.657Z,15.20
2023-05-10T10:04:11.156Z,15.30
2023-05-10T10:06:39.828Z,15.30
2023-05-10T10:09:08.471Z,15.40
2023-05-10T10:11:37.495Z,15.40
2023-05-10T10:14:05.718Z,15.40
2023-05-10T10:16:33.753Z,15.60
2023-05-10T10:19:02.022Z,15.50
2023-05-10T10:21:29.566Z,15.60
2023-05-10T10:23:56.980Z,15.60
2023-05-10T10:26:24.984Z,15.60
2023-05-10T10:29:13.912Z,15.40
2023-05-10T10:32:09.547Z,15.40
2023-05-10T10:34:36.883Z,15.50
2023-05-10T10:37:08.033Z,15.70
2023-05-10T10:39:37.665Z,15.70
2023-05-10T10:42:05.974Z,15.90
2023-05-10T10:44:35.996Z,16.00
2023-05-10T10:47:11.002Z,16.00
2023-05-10T10:49:41.053Z,16.00
2023-05-10T10:52:34.576Z,16.00
2023-05-10T10:55:23.236Z,16.20
2023-05-10T10:57:52.831Z,16.30
2023-05-10T11:00:34.432Z,16.30
2023-05-10T11:03:19.944Z,16.40
2023-05-10T11:05:54.013Z,16.40
2023-05-10T11:08:30.654Z,16.50
2023-05-10T11:11:00.871Z,16.30
2023-05-10T11:13:34.117Z,16.30
2023-05-10T11:16:12.092Z,16.10
2023-05-10T11:18:39.586Z,16.10
2023-05-10T11:21:11.438Z,16.10
2023-05-10T11:23:41.362Z,16.00
2023-05-10T11:26:12.370Z,16.20
2023-05-10T11:28:47.291Z,16.20
2023-05-10T11:31:21.819Z,16.20
2023-05-10T11:33:52.307Z,16.10
2023-05-10T11:36:34.375Z,16.20
2023-05-10T11:39:01.499Z,16.30
2023-05-10T11:41:31.347Z,16.30
2023-05-10T11:43:59.698Z,16.30
2023-05-10T11:46:29.256Z,16.30
2023-05-10T11:49:02.705Z,16.30
2023-05-10T11:51:29.819Z,16.30
2023-05-10T11:53:58.053Z,16.30
2023-05-10T11:56:27.153Z,16.30
2023-05-10T11:58:57.699Z,16.20
2023-05-10T12:01:28.692Z,16.20
2023-05-10T12:04:00.481Z,16.30
2023-05-10T12:06:32.973Z,16.50
2023-05-10T12:09:00.195Z,16.60
2023-05-10T12:11:28.978Z,16.70
2023-05-10T12:13:57.392Z,16.80
2023-05-10T12:16:27.930Z,16.80
2023-05-10T12:18:58.853Z,16.90
2023-05-10T12:21:27.129Z,16.90
2023-05-10T12:23:58.082Z,16.90
2023-05-10T12:26:30.085Z,16.60
2023-05-10T12:29:16.990Z,16.60
2023-05-10T12:31:55.771Z,16.60
2023-05-10T12:34:33.686Z,16.50
2023-05-10T12:37:02.171Z,16.50
2023-05-10T12:39:44.823Z,16.30
2023-05-10T12:42:12.270Z,16.30
2023-05-10T12:44:40.689Z,16.20
2023-05-10T12:47:08.036Z,16.20
2023-05-10T12:49:35.252Z,16.10
2023-05-10T12:52:02.581Z,16.20
2023-05-10T12:54:29.548Z,16.20
2023-05-10T12:56:56.483Z,16.30
2023-05-10T12:59:23.953Z,16.40
2023-05-10T13:01:51.211Z,16.20
2023-05-10T13:04:18.256Z,16.30
2023-05-10T13:06:45.465Z,16.20
2023-05-10T13:09:12.464Z,16.20
2023-05-10T13:11:39.616Z,16.10
2023-05-10T13:14:06.588Z,16.00
2023-05-10T13:16:33.986Z,16.10
2023-05-10T13:19:01.238Z,16.00
2023-05-10T13:21:28.873Z,15.80
2023-05-10T13:23:56.521Z,15.70
2023-05-10T13:26:23.590Z,15.60
2023-05-10T13:28:52.456Z,15.50
2023-05-10T13:31:19.631Z,15.30
2023-05-10T13:33:46.715Z,15.30
2023-05-10T13:36:13.769Z,15.30
2023-05-10T13:38:40.722Z,15.20
2023-05-10T13:41:07.802Z,15.30
2023-05-10T13:43:34.908Z,15.30
2023-05-10T13:46:02.860Z,15.20
2023-05-10T13:48:30.031Z,15.20
2023-05-10T13:50:57.073Z,15.30
2023-05-10T13:53:24.276Z,15.30
2023-05-10T13:55:51.344Z,15.40
2023-05-10T13:58:18.348Z,15.50
2023-05-10T14:00:45.300Z,15.70
2023-05-10T14:03:12.630Z,15.70
2023-05-10T14:05:39.878Z,15.80
2023-05-10T14:08:07.246Z,15.80
2023-05-10T14:10:34.235Z,15.90
2023-05-10T14:13:01.275Z,16.00
2023-05-10T14:15:28.336Z,16.20
2023-05-10T14:17:55.523Z,16.20
2023-05-10T14:20:22.668Z,16.10
2023-05-10T14:22:49.882Z,16.20
2023-05-10T14:25:17.075Z,16.30
2023-05-10T14:27:44.310Z,16.30
2023-05-10T14:30:12.292Z,16.30
2023-05-10T14:32:39.448Z,16.30
2023-05-10T14:35:07.248Z,16.40
2023-05-10T14:37:34.521Z,16.30
2023-05-10T14:40:01.799Z,16.30
2023-05-10T14:42:29.482Z,16.20
2023-05-10T14:44:56.582Z,16.20
2023-05-10T14:47:23.796Z,16.20
2023-05-10T14:49:51.176Z,16.10
2023-05-10T14:52:18.410Z,16.00
2023-05-10T14:54:45.434Z,15.90
2023-05-10T14:57:12.500Z,15.90
2023-05-10T14:59:39.555Z,15.90
2023-05-10T15:02:09.160Z,15.90
2023-05-10T15:04:36.756Z,15.90
2023-05-10T15:07:05.111Z,15.90
2023-05-10T15:09:32.067Z,16.10
2023-05-10T15:11:59.028Z,16.10
2023-05-10T15:14:26.205Z,16.00
2023-05-10T15:16:53.350Z,16.20
2023-05-10T15:19:21.308Z,16.10
2023-05-10T15:21:48.492Z,16.10
2023-05-10T15:24:15.642Z,16.10
2023-05-10T15:26:42.788Z,16.20
2023-05-10T15:29:10.522Z,16.30
2023-05-10T15:31:37.642Z,16.40
2023-05-10T15:34:04.742Z,16.30
2023-05-10T15:36:33.034Z,16.50
2023-05-10T15:39:00.134Z,16.50
2023-05-10T15:41:27.744Z,16.40
2023-05-10T15:43:55.049Z,16.40
2023-05-10T15:46:22.671Z,16.40
2023-05-10T15:48:49.734Z,16.50
2023-05-10T15:51:16.730Z,16.50
2023-05-10T15:53:56.475Z,16.50
2023-05-10T15:56:31.122Z,16.50
2023-05-10T15:58:58.197Z,16.60
2023-05-10T16:01:25.772Z,16.60
2023-05-10T16:03:52.948Z,16.60
2023-05-10T16:06:20.057Z,16.60
2023-05-10T16:08:47.177Z,16.50
2023-05-10T16:11:14.360Z,16.50
2023-05-10T16:13:41.639Z,16.50
2023-05-10T16:16:09.214Z,16.40
2023-05-10T16:18:36.473Z,16.40
2023-05-10T16:21:03.834Z,16.40
2023-05-10T16:23:30.966Z,16.40
2023-05-10T16:25:58.391Z,16.30
2023-05-10T16:28:25.528Z,16.30
2023-05-10T16:30:52.695Z,16.30
2023-05-10T16:33:20.026Z,16.20
2023-05-10T16:35:47.245Z,16.20
2023-05-10T16:38:15.061Z,16.30
2023-05-10T16:40:42.095Z,16.20
2023-05-10T16:43:09.303Z,16.20
2023-05-10T16:45:36.438Z,16.10
2023-05-10T16:48:03.907Z,16.10
2023-05-10T16:50:30.962Z,16.00
2023-05-10T16:52:57.995Z,16.10
2023-05-10T16:55:26.288Z,16.10
2023-05-10T16:57:59.628Z,16.00
2023-05-10T17:00:30.082Z,16.00
2023-05-10T17:02:57.500Z,15.90
2023-05-10T17:05:24.865Z,15.90
2023-05-10T17:07:51.930Z,15.90
2023-05-10T17:10:19.090Z,15.90
2023-05-10T17:12:46.364Z,15.80
2023-05-10T17:15:13.633Z,15.80
2023-05-10T17:17:41.075Z,15.80
2023-05-10T17:20:09.102Z,15.80
2023-05-10T17:22:36.236Z,15.70
2023-05-10T17:25:04.229Z,15.80
2023-05-10T17:27:31.502Z,15.70
2023-05-10T17:29:59.137Z,15.60
2023-05-10T17:32:26.495Z,15.60
2023-05-10T17:34:53.720Z,15.60
2023-05-10T17:37:20.801Z,15.50
2023-05-10T17:39:47.938Z,15.50
2023-05-10T17:42:17.556Z,15.50
2023-05-10T17:44:44.891Z,15.50
2023-05-10T17:47:12.080Z,15.40
2023-05-10T17:49:39.825Z,15.40
2023-05-10T17:52:07.372Z,15.40
2023-05-10T17:54:34.624Z,15.40
2023-05-10T17:57:02.099Z,15.40
2023-05-10T17:59:29.329Z,15.40
2023-05-10T18:01:56.553Z,15.40
2023-05-10T18:04:23.852Z,15.30
2023-05-10T18:06:51.176Z,15.40
2023-05-10T18:09:18.293Z,15.40
2023-05-10T18:11:45.564Z,15.40
2023-05-10T18:14:12.734Z,15.40
2023-05-10T18:16:39.866Z,15.40
2023-05-10T18:19:07.049Z,15.40
2023-05-10T18:21:34.202Z,15.40
2023-05-10T18:24:01.825Z,15.40
2023-05-10T18:26:28.938Z,15.30
2023-05-10T18:28:55.940Z,15.30
2023-05-10T18:31:23.683Z,15.30
2023-05-10T18:33:51.046Z,15.30
2023-05-10T18:36:18.341Z,15.30
2023-05-10T18:38:45.759Z,15.30
2023-05-10T18:41:14.446Z,15.20
2023-05-10T18:43:42.687Z,15.20
2023-05-10T18:46:09.675Z,15.10
2023-05-10T18:48:36.800Z,15.10
2023-05-10T18:51:04.283Z,15.00
2023-05-10T18:53:32.507Z,15.00
2023-05-10T18:56:00.224Z,15.00
2023-05-10T18:58:28.774Z,14.90
2023-05-10T19:00:55.961Z,14.90
2023-05-10T19:03:22.980Z,14.80
2023-05-10T19:05:49.957Z,14.80
2023-05-10T19:08:17.328Z,14.80
2023-05-10T19:10:45.849Z,14.80
2023-05-10T19:13:15.016Z,14.70
2023-05-10T19:15:42.160Z,14.60
2023-05-10T19:18:09.556Z,14.60
2023-05-10T19:20:38.156Z,14.60
2023-05-10T19:23:10.210Z,14.50
2023-05-10T19:25:39.325Z,14.50
2023-05-10T19:28:06.835Z,14.40
2023-05-10T19:30:34.070Z,14.40
2023-05-10T19:33:04.062Z,14.40
2023-05-10T19:35:31.287Z,14.30
2023-05-10T19:37:58.354Z,14.20
2023-05-10T19:40:25.533Z,14.10
2023-05-10T19:42:53.713Z,14.10
2023-05-10T19:45:21.491Z,14.10
2023-05-10T19:47:48.721Z,14.10
2023-05-10T19:50:18.255Z,14.10
2023-05-10T19:52:46.148Z,14.00
2023-05-10T19:55:30.760Z,14.00
2023-05-10T19:58:00.507Z,14.00
2023-05-10T20:00:27.739Z,13.90
2023-05-10T20:02:55.421Z,13.80
2023-05-10T20:05:22.771Z,13.80
2023-05-10T20:07:50.361Z,13.80
2023-05-10T20:10:18.241Z,13.80
2023-05-10T20:12:53.800Z,13.70
2023-05-10T20:15:23.236Z,13.70
2023-05-10T20:17:52.707Z,13.60
2023-05-10T20:20:20.854Z,13.60
2023-05-10T20:22:48.803Z,13.60
2023-05-10T20:25:17.775Z,13.60
2023-05-10T20:27:45.232Z,13.60
2023-05-10T20:30:13.240Z,13.50
2023-05-10T20:32:40.427Z,13.50
2023-05-10T20:35:07.964Z,13.40
2023-05-10T20:37:35.500Z,13.50
2023-05-10T20:40:02.691Z,13.40
2023-05-10T20:42:30.086Z,13.30
2023-05-10T20:44:58.046Z,13.30
2023-05-10T20:47:25.251Z,13.30
2023-05-10T20:49:52.482Z,13.20
2023-05-10T20:52:19.666Z,13.20
2023-05-10T20:54:46.825Z,13.20
2023-05-10T20:57:14.496Z,13.20
2023-05-10T20:59:41.920Z,13.10
2023-05-10T21:02:09.075Z,13.10
2023-05-10T21:04:36.297Z,13.10
2023-05-10T21:07:03.299Z,13.10
2023-05-10T21:09:30.435Z,13.10
2023-05-10T21:11:58.242Z,13.20
2023-05-10T21:14:25.595Z,13.10
2023-05-10T21:16:52.798Z,13.10
2023-05-10T21:19:19.939Z,13.10
2023-05-10T21:21:47.914Z,13.10
2023-05-10T21:24:15.019Z,13.10
2023-05-10T21:26:42.380Z,13.10
2023-05-10T21:29:09.481Z,13.10
2023-05-10T21:31:36.475Z,13.10
2023-05-10T21:34:03.629Z,13.10
2023-05-10T21:36:30.580Z,13.10
2023-05-10T21:38:57.812Z,13.00
2023-05-10T21:41:24.897Z,13.10
2023-05-10T21:43:51.920Z,13.00
2023-05-10T21:46:19.533Z,13.00
2023-05-10T21:48:46.675Z,13.00
2023-05-10T21:51:14.884Z,12.90
2023-05-10T21:53:41.983Z,12.90
2023-05-10T21:56:09.079Z,12.80
2023-05-10T21:58:36.573Z,12.80
2023-05-10T22:01:03.828Z,12.80
2023-05-10T22:03:31.157Z,12.70
2023-05-10T22:05:58.225Z,12.70
2023-05-10T22:08:25.653Z,12.70
2023-05-10T22:10:52.756Z,12.70
2023-05-10T22:13:19.823Z,12.60
2023-05-10T22:15:46.949Z,12.70
2023-05-10T22:18:13.997Z,12.60
2023-05-10T22:20:41.146Z,12.60
2023-05-10T22:23:08.206Z,12.60
2023-05-10T22:25:35.422Z,12.60
2023-05-10T22:28:02.622Z,12.60
2023-05-10T22:30:31.507Z,12.60
2023-05-10T22:33:00.326Z,12.60
2023-05-10T22:35:27.457Z,12.50
2023-05-10T22:37:54.617Z,12.50
2023-05-10T22:40:22.074Z,12.50
2023-05-10T22:42:49.230Z,12.50
2023-05-10T22:45:16.229Z,12.50
2023-05-10T22:47:43.260Z,12.50
2023-05-10T22:50:10.812Z,12.50
2023-05-10T22:52:39.351Z,12.40
2023-05-10T22:55:07.354Z,12.40
2023-05-10T22:57:34.599Z,12.40
2023-05-10T23:00:03.324Z,12.40
2023-05-10T23:02:31.235Z,12.40
2023-05-10T23:04:58.286Z,12.40
2023-05-10T23:07:25.520Z,12.40
2023-05-10T23:09:52.561Z,12.40
2023-05-10T23:12:19.625Z,12.40
2023-05-10T23:14:47.630Z,12.40
2023-05-10T23:17:14.788Z,12.30
2023-05-10T23:19:42.010Z,12.30
2023-05-10T23:22:09.987Z,12.30
2023-05-10T23:24:37.117Z,12.30
2023-05-10T23:27:04.590Z,12.30
2023-05-10T23:29:32.525Z,12.30
2023-05-10T23:31:59.526Z,12.30
2023-05-10T23:34:26.549Z,12.30
2023-05-10T23:36:53.661Z,12.30
2023-05-10T23:39:20.856Z,12.30
2023-05-10T23:41:47.953Z,12.30
2023-05-10T23:44:15.109Z,12.20
2023-05-10T23:46:42.245Z,12.20
2023-05-10T23:49:09.423Z,12.20
2023-05-10T23:51:36.585Z,12.20
2023-05-10T23:54:03.820Z,12.20
2023-05-10T23:56:31.035Z,12.20
2023-05-10T23:58:58.064Z,12.20
